Time;durP1;ratioP1;P1;durP2;ratioP2;P2;SDS_P1;SDS_P2;PMS_P1;PMS_P2;Temp;Humidity;BMP_temperature;BMP_pressure;BME280_temperature;BME280_humidity;BME280_pressure;Samples;Min_cycle;Max_cycle;Signal;HPM_P1;HPM_P2
2023/12/03 00:01:22;;;;;;;;;;;-0.60;99.90;;;;;;5111022;27;19928;-83
2023/12/03 00:03:48;;;;;;;;;;;-0.60;99.90;;;;;;5113220;27;19924;-83
2023/12/03 00:06:13;;;;;;;;;;;-0.50;99.90;;;;;;5135298;27;19946;-82
2023/12/03 00:08:40;;;;;;;;;;;-0.60;99.90;;;;;;5112953;27;19934;-83
2023/12/03 00:11:06;;;;;;;;;;;-0.60;99.90;;;;;;5112320;27;19932;-83
2023/12/03 00:13:31;;;;;;;;;;;-0.60;99.90;;;;;;5113896;27;19977;-83
2023/12/03 00:15:57;;;;;;;;;;;-0.60;99.90;;;;;;5108152;27;19982;-82
2023/12/03 00:18:22;;;;;;;;;;;-0.60;99.90;;;;;;5109051;27;19928;-83
2023/12/03 00:20:48;;;;;;;;;;;-0.60;99.90;;;;;;5114050;28;19928;-83
2023/12/03 00:23:13;;;;;;;;;;;-0.60;99.90;;;;;;5113389;28;20417;-84
2023/12/03 00:25:39;;;;;;;;;;;-0.70;99.90;;;;;;5114903;28;20282;-83
2023/12/03 00:28:04;;;;;;;;;;;-0.70;99.90;;;;;;5108852;27;19976;-83
2023/12/03 00:30:30;;;;;;;;;;;-0.60;99.90;;;;;;5103683;27;19928;-83
2023/12/03 00:32:56;;;;;;;;;;;-0.70;99.90;;;;;;5118250;27;19989;-83
2023/12/03 00:35:21;;;;;;;;;;;-0.80;99.90;;;;;;5123824;27;19927;-82
2023/12/03 00:37:47;;;;;;;;;;;-0.80;99.90;;;;;;5121036;27;19924;-81
2023/12/03 00:40:12;;;;;;;;;;;-0.80;99.90;;;;;;5122053;27;19980;-84
2023/12/03 00:42:38;;;;;;;;;;;-0.80;99.90;;;;;;5108172;27;19939;-83
2023/12/03 00:45:04;;;;;;;;;;;-0.80;99.90;;;;;;5120566;27;19924;-83
2023/12/03 00:47:29;;;;;;;;;;;-0.90;99.90;;;;;;5121014;27;20354;-83
2023/12/03 00:49:55;;;;;;;;;;;-0.80;99.90;;;;;;5116862;27;19996;-82
2023/12/03 00:52:20;;;;;;;;;;;-0.80;99.90;;;;;;5115061;27;19967;-83
2023/12/03 00:54:46;;;;;;;;;;;-0.80;99.90;;;;;;5095665;28;19932;-83
2023/12/03 00:57:11;;;;;;;;;;;-0.80;99.90;;;;;;5112109;27;19934;-82
2023/12/03 00:59:37;;;;;;;;;;;-0.80;99.90;;;;;;5112213;27;19923;-82
2023/12/03 01:02:03;;;;;;;;;;;-0.80;99.90;;;;;;5115637;27;19931;-85
2023/12/03 01:04:28;;;;;;;;;;;-0.80;99.90;;;;;;5112830;27;20031;-85
2023/12/03 01:06:54;;;;;;;;;;;-0.80;99.90;;;;;;5109961;27;20043;-83
2023/12/03 01:09:19;;;;;;;;;;;-0.80;99.90;;;;;;5112252;27;20424;-83
2023/12/03 01:11:45;;;;;;;;;;;-0.70;99.90;;;;;;5112933;27;19923;-82
2023/12/03 01:14:11;;;;;;;;;;;-0.50;99.90;;;;;;5117288;27;19924;-82
2023/12/03 01:16:36;;;;;;;;;;;-0.40;99.90;;;;;;5105319;27;20393;-84
2023/12/03 01:19:02;;;;;;;;;;;-0.30;99.90;;;;;;5108170;27;20390;-83
2023/12/03 01:21:27;;;;;;;;;;;-0.20;99.90;;;;;;5114349;27;20014;-82
2023/12/03 01:23:53;;;;;;;;;;;-0.10;99.90;;;;;;5113177;27;19923;-83
2023/12/03 01:26:18;;;;;;;;;;;0.00;99.90;;;;;;5113076;28;20382;-82
2023/12/03 01:28:44;;;;;;;;;;;0.00;99.90;;;;;;5113306;28;20404;-82
2023/12/03 01:31:09;;;;;;;;;;;0.10;99.90;;;;;;5113244;27;19924;-83
2023/12/03 01:33:35;;;;;;;;;;;0.20;99.90;;;;;;5113797;28;19924;-83
2023/12/03 01:36:01;;;;;;;;;;;0.30;99.90;;;;;;5111690;28;20374;-82
2023/12/03 01:38:26;;;;;;;;;;;0.30;99.90;;;;;;5113004;28;19923;-87
2023/12/03 01:40:52;;;;;;;;;;;0.40;99.90;;;;;;5113667;28;19989;-83
2023/12/03 01:43:18;;;;;;;;;;;0.50;99.90;;;;;;5109035;28;19931;-84
2023/12/03 01:45:45;;;;;;;;;;;0.50;99.90;;;;;;5097939;28;20014;-83
2023/12/03 01:48:13;;;;;;;;;;;0.50;99.90;;;;;;5108046;28;19928;-82
2023/12/03 01:50:39;;;;;;;;;;;0.60;99.90;;;;;;5102613;28;19946;-82
2023/12/03 01:53:05;;;;;;;;;;;0.60;99.90;;;;;;5112686;28;20382;-82
2023/12/03 01:55:31;;;;;;;;;;;0.50;99.90;;;;;;5101303;28;19924;-82
2023/12/03 01:57:57;;;;;;;;;;;0.50;99.90;;;;;;5109891;27;19938;-86
2023/12/03 02:00:22;;;;;;;;;;;0.50;99.90;;;;;;5108024;28;19924;-83
2023/12/03 02:02:48;;;;;;;;;;;0.60;99.90;;;;;;5113138;28;20018;-82
2023/12/03 02:05:13;;;;;;;;;;;0.50;99.90;;;;;;5110170;28;20400;-83
2023/12/03 02:07:39;;;;;;;;;;;0.50;99.90;;;;;;5112467;28;20393;-83
2023/12/03 02:10:05;;;;;;;;;;;0.50;99.90;;;;;;5108938;28;19932;-83
2023/12/03 02:12:30;;;;;;;;;;;0.60;99.90;;;;;;5108642;28;19948;-84
2023/12/03 02:14:56;;;;;;;;;;;0.50;99.90;;;;;;5095902;28;20427;-82
2023/12/03 02:17:22;;;;;;;;;;;0.60;99.90;;;;;;5094297;28;19924;-83
2023/12/03 02:19:47;;;;;;;;;;;0.60;99.90;;;;;;5110906;27;19936;-86
2023/12/03 02:22:13;;;;;;;;;;;0.60;99.90;;;;;;5106672;28;20453;-83
2023/12/03 02:24:38;;;;;;;;;;;0.60;99.90;;;;;;5110399;28;19987;-83
2023/12/03 02:27:04;;;;;;;;;;;0.60;99.90;;;;;;5111750;28;20389;-82
2023/12/03 02:29:29;;;;;;;;;;;0.60;99.90;;;;;;5106202;28;19924;-82
2023/12/03 02:31:55;;;;;;;;;;;0.70;99.90;;;;;;5109850;28;19928;-83
2023/12/03 02:34:20;;;;;;;;;;;0.70;99.90;;;;;;5112826;28;19928;-87
2023/12/03 02:36:46;;;;;;;;;;;0.60;99.90;;;;;;5112981;28;19973;-83
2023/12/03 02:39:12;;;;;;;;;;;0.70;99.90;;;;;;5114154;28;20468;-84
2023/12/03 02:41:37;;;;;;;;;;;0.80;99.90;;;;;;5113813;28;21404;-87
2023/12/03 02:44:03;;;;;;;;;;;0.70;99.90;;;;;;5115787;28;20375;-86
2023/12/03 02:46:28;;;;;;;;;;;0.70;99.90;;;;;;5110364;28;19927;-83
2023/12/03 02:48:54;;;;;;;;;;;0.90;99.90;;;;;;5109919;28;19983;-84
2023/12/03 02:51:20;;;;;;;;;;;0.70;99.90;;;;;;5115379;27;19934;-83
2023/12/03 02:53:45;;;;;;;;;;;0.80;99.90;;;;;;5116891;27;20335;-83
2023/12/03 02:56:12;;;;;;;;;;;0.80;99.90;;;;;;5116439;28;19927;-83
2023/12/03 02:58:37;;;;;;;;;;;0.80;99.90;;;;;;5093753;27;19925;-82
2023/12/03 03:01:04;;;;;;;;;;;0.90;99.90;;;;;;5121485;27;19969;-84
2023/12/03 03:03:30;;;;;;;;;;;0.80;99.90;;;;;;5116803;27;19967;-86
2023/12/03 03:05:55;;;;;;;;;;;0.80;99.90;;;;;;5111551;27;19974;-82
2023/12/03 03:08:21;;;;;;;;;;;0.80;99.90;;;;;;5113209;27;19927;-83
2023/12/03 03:10:47;;;;;;;;;;;0.80;99.90;;;;;;5116482;27;19930;-82
2023/12/03 03:13:12;;;;;;;;;;;0.80;99.90;;;;;;5110534;27;19931;-83
2023/12/03 03:15:38;;;;;;;;;;;0.80;99.90;;;;;;5117313;27;19932;-83
2023/12/03 03:18:04;;;;;;;;;;;0.80;99.90;;;;;;5117396;27;19977;-83
2023/12/03 03:20:29;;;;;;;;;;;0.80;99.90;;;;;;5118907;27;19923;-82
2023/12/03 03:22:55;;;;;;;;;;;0.90;99.90;;;;;;5114617;27;19976;-84
2023/12/03 03:25:21;;;;;;;;;;;0.90;99.90;;;;;;5113543;28;19924;-81
2023/12/03 03:27:46;;;;;;;;;;;1.00;99.90;;;;;;5116717;28;19923;-82
2023/12/03 03:30:12;;;;;;;;;;;0.90;99.90;;;;;;5115942;28;20024;-82
2023/12/03 03:32:37;;;;;;;;;;;0.90;99.90;;;;;;5113232;28;20336;-83
2023/12/03 03:35:03;;;;;;;;;;;0.90;99.90;;;;;;5108255;28;20011;-82
2023/12/03 03:37:28;;;;;;;;;;;0.90;99.90;;;;;;5114157;28;19963;-82
2023/12/03 03:39:54;;;;;;;;;;;0.90;99.90;;;;;;5115685;28;19928;-83
2023/12/03 03:42:20;;;;;;;;;;;0.90;99.90;;;;;;5113658;28;20378;-83
2023/12/03 03:44:45;;;;;;;;;;;0.90;99.90;;;;;;5114354;28;19923;-83
2023/12/03 03:47:14;;;;;;;;;;;0.90;99.90;;;;;;5115363;28;19924;-83
2023/12/03 03:49:40;;;;;;;;;;;1.00;99.90;;;;;;5115713;28;20019;-83
2023/12/03 03:52:05;;;;;;;;;;;0.90;99.90;;;;;;5114351;28;20061;-82
2023/12/03 03:54:31;;;;;;;;;;;1.00;99.90;;;;;;5112676;28;20299;-84
2023/12/03 03:56:56;;;;;;;;;;;1.00;99.90;;;;;;5115721;28;19923;-83
2023/12/03 03:59:22;;;;;;;;;;;0.90;99.90;;;;;;5112490;28;19947;-82
2023/12/03 04:01:47;;;;;;;;;;;0.90;99.90;;;;;;5114185;28;19923;-84
2023/12/03 04:04:13;;;;;;;;;;;1.00;99.90;;;;;;5112781;28;20014;-83
2023/12/03 04:06:44;;;;;;;;;;;1.00;99.90;;;;;;5103790;28;19924;-82
2023/12/03 04:09:10;;;;;;;;;;;1.00;99.90;;;;;;5126141;27;20520;-83
2023/12/03 04:11:42;;;;;;;;;;;1.00;99.90;;;;;;5121646;27;19927;-85
2023/12/03 04:14:09;;;;;;;;;;;1.00;99.90;;;;;;5119837;27;19923;-83
2023/12/03 04:16:35;;;;;;;;;;;1.00;99.90;;;;;;5117444;27;19934;-84
2023/12/03 04:19:00;;;;;;;;;;;1.00;99.90;;;;;;5112647;27;20353;-82
2023/12/03 04:21:26;;;;;;;;;;;1.00;99.90;;;;;;5116521;27;19943;-88
2023/12/03 04:23:51;;;;;;;;;;;1.00;99.90;;;;;;5114018;27;19930;-82
2023/12/03 04:26:17;;;;;;;;;;;1.00;99.90;;;;;;5116756;27;19972;-84
2023/12/03 04:28:43;;;;;;;;;;;1.00;99.90;;;;;;5115758;27;19973;-83
2023/12/03 04:31:15;;;;;;;;;;;1.00;99.90;;;;;;5132021;27;19928;-84
2023/12/03 04:33:41;;;;;;;;;;;1.10;99.90;;;;;;5117043;27;19924;-83
2023/12/03 04:36:07;;;;;;;;;;;1.00;99.90;;;;;;5116582;27;19946;-82
2023/12/03 04:38:33;;;;;;;;;;;1.10;99.90;;;;;;5111023;27;19936;-83
2023/12/03 04:40:59;;;;;;;;;;;1.10;99.90;;;;;;5117928;27;19932;-84
2023/12/03 04:43:24;;;;;;;;;;;1.10;99.90;;;;;;5117740;27;19927;-82
2023/12/03 04:45:50;;;;;;;;;;;1.10;99.90;;;;;;5115182;27;20398;-83
2023/12/03 04:48:16;;;;;;;;;;;1.20;99.90;;;;;;5111422;27;19958;-82
2023/12/03 04:50:41;;;;;;;;;;;1.20;99.90;;;;;;5114705;27;19931;-85
2023/12/03 04:53:07;;;;;;;;;;;1.20;99.90;;;;;;5115518;27;19984;-82
2023/12/03 04:55:32;;;;;;;;;;;1.20;99.90;;;;;;5114907;27;19969;-83
2023/12/03 04:57:58;;;;;;;;;;;1.30;99.90;;;;;;5115655;27;19924;-82
2023/12/03 05:00:23;;;;;;;;;;;1.20;99.90;;;;;;5116907;27;19928;-83
2023/12/03 05:02:49;;;;;;;;;;;1.30;99.90;;;;;;5117995;27;19939;-86
2023/12/03 05:05:15;;;;;;;;;;;1.30;99.90;;;;;;5110203;27;20008;-83
2023/12/03 05:07:40;;;;;;;;;;;1.20;99.90;;;;;;5133126;27;19924;-82
2023/12/03 05:10:06;;;;;;;;;;;1.30;99.90;;;;;;5114229;27;19924;-82
2023/12/03 05:12:32;;;;;;;;;;;1.30;99.90;;;;;;5115132;27;19934;-84
2023/12/03 05:14:57;;;;;;;;;;;1.30;99.90;;;;;;5111007;27;20010;-82
2023/12/03 05:17:23;;;;;;;;;;;1.30;99.90;;;;;;5114387;28;19924;-83
2023/12/03 05:19:48;;;;;;;;;;;1.30;99.90;;;;;;5100506;28;19931;-82
2023/12/03 05:22:14;;;;;;;;;;;1.30;99.90;;;;;;5112694;27;19930;-82
2023/12/03 05:24:39;;;;;;;;;;;1.30;99.90;;;;;;5108669;27;20358;-82
2023/12/03 05:27:05;;;;;;;;;;;1.30;99.90;;;;;;5113732;28;19932;-82
2023/12/03 05:29:31;;;;;;;;;;;1.30;99.90;;;;;;5112033;28;19924;-83
2023/12/03 05:31:56;;;;;;;;;;;1.30;99.90;;;;;;5108916;28;20289;-83
2023/12/03 05:34:22;;;;;;;;;;;1.30;99.90;;;;;;5105709;28;19928;-82
2023/12/03 05:36:47;;;;;;;;;;;1.30;99.90;;;;;;5106017;28;19976;-82
2023/12/03 05:39:13;;;;;;;;;;;1.30;99.90;;;;;;5098064;28;20391;-82
2023/12/03 05:41:39;;;;;;;;;;;1.30;99.90;;;;;;5104491;28;19931;-83
2023/12/03 05:44:05;;;;;;;;;;;1.40;99.90;;;;;;5129533;27;20378;-82
2023/12/03 05:46:30;;;;;;;;;;;1.40;99.90;;;;;;5113775;28;20302;-84
2023/12/03 05:48:56;;;;;;;;;;;1.40;99.90;;;;;;5113336;28;19976;-82
2023/12/03 05:51:21;;;;;;;;;;;1.40;99.90;;;;;;5106980;28;19924;-81
2023/12/03 05:53:47;;;;;;;;;;;1.40;99.90;;;;;;5140607;27;19924;-81
2023/12/03 05:56:13;;;;;;;;;;;1.40;99.90;;;;;;5110125;27;19934;-84
2023/12/03 05:58:38;;;;;;;;;;;1.40;99.90;;;;;;5108954;28;20421;-82
2023/12/03 06:01:04;;;;;;;;;;;1.40;99.90;;;;;;5113881;27;19927;-82
2023/12/03 06:03:29;;;;;;;;;;;1.40;99.90;;;;;;5112950;28;20366;-82
2023/12/03 06:05:55;;;;;;;;;;;1.40;99.90;;;;;;5112401;28;19938;-82
2023/12/03 06:08:20;;;;;;;;;;;1.40;99.90;;;;;;5114356;28;19936;-83
2023/12/03 06:10:46;;;;;;;;;;;1.50;99.90;;;;;;5114509;28;19928;-83
2023/12/03 06:13:12;;;;;;;;;;;1.50;99.90;;;;;;5116612;28;19927;-83
2023/12/03 06:15:37;;;;;;;;;;;1.50;99.90;;;;;;5114120;28;19930;-82
2023/12/03 06:18:03;;;;;;;;;;;1.50;99.90;;;;;;5119089;28;20011;-82
2023/12/03 06:20:28;;;;;;;;;;;1.50;99.90;;;;;;5114364;28;19930;-83
2023/12/03 06:22:55;;;;;;;;;;;1.50;99.90;;;;;;5114306;28;19927;-82
2023/12/03 06:25:20;;;;;;;;;;;1.50;99.90;;;;;;5110139;27;19931;-82
2023/12/03 06:27:46;;;;;;;;;;;1.50;99.90;;;;;;5115714;27;19931;-82
2023/12/03 06:30:12;;;;;;;;;;;1.50;99.90;;;;;;5117515;27;20019;-83
2023/12/03 06:32:37;;;;;;;;;;;1.50;99.90;;;;;;5113093;27;20011;-83
2023/12/03 06:35:04;;;;;;;;;;;1.50;99.90;;;;;;5106121;27;19923;-83
2023/12/03 06:37:29;;;;;;;;;;;1.50;99.90;;;;;;5122142;27;19923;-82
2023/12/03 06:39:55;;;;;;;;;;;1.50;99.90;;;;;;5115797;27;19981;-82
2023/12/03 06:42:21;;;;;;;;;;;1.50;99.90;;;;;;5111008;27;19973;-82
2023/12/03 06:44:46;;;;;;;;;;;1.60;99.90;;;;;;5111729;27;20006;-81
2023/12/03 06:47:12;;;;;;;;;;;1.50;99.90;;;;;;5118788;27;19924;-81
2023/12/03 06:49:37;;;;;;;;;;;1.50;99.90;;;;;;5117725;27;19932;-84
2023/12/03 06:52:03;;;;;;;;;;;1.50;99.90;;;;;;5117215;27;20465;-84
2023/12/03 06:54:29;;;;;;;;;;;1.50;99.90;;;;;;5116868;27;20397;-82
2023/12/03 06:56:54;;;;;;;;;;;1.50;99.90;;;;;;5116007;28;19950;-82
2023/12/03 06:59:20;;;;;;;;;;;1.50;99.90;;;;;;5117293;27;20013;-82
2023/12/03 07:01:45;;;;;;;;;;;1.50;99.90;;;;;;5119883;27;19935;-84
2023/12/03 07:04:12;;;;;;;;;;;1.50;99.90;;;;;;5119582;27;19924;-82
2023/12/03 07:06:37;;;;;;;;;;;1.50;99.90;;;;;;5116929;27;19923;-82
2023/12/03 07:09:03;;;;;;;;;;;1.50;99.90;;;;;;5108971;27;20263;-83
2023/12/03 07:11:29;;;;;;;;;;;1.50;99.90;;;;;;5115510;27;19936;-85
2023/12/03 07:13:55;;;;;;;;;;;1.50;99.90;;;;;;5112439;27;19927;-81
2023/12/03 07:16:22;;;;;;;;;;;1.60;99.90;;;;;;5113376;27;19930;-83
2023/12/03 07:18:48;;;;;;;;;;;1.60;99.90;;;;;;5112931;27;20381;-82
2023/12/03 07:21:14;;;;;;;;;;;1.60;99.90;;;;;;5112433;27;19931;-82
2023/12/03 07:23:39;;;;;;;;;;;1.60;99.90;;;;;;5112591;27;20434;-82
2023/12/03 07:26:08;;;;;;;;;;;1.60;99.90;;;;;;5114477;28;20014;-82
2023/12/03 07:28:34;;;;;;;;;;;1.60;99.90;;;;;;5102474;28;19931;-83
2023/12/03 07:31:00;;;;;;;;;;;1.60;99.90;;;;;;5095248;28;19924;-81
2023/12/03 07:33:25;;;;;;;;;;;1.60;99.90;;;;;;5112250;27;19935;-82
2023/12/03 07:35:51;;;;;;;;;;;1.60;99.90;;;;;;5108015;28;19969;-80
2023/12/03 07:38:16;;;;;;;;;;;1.60;99.90;;;;;;5139807;27;19924;-83
2023/12/03 07:40:42;;;;;;;;;;;1.70;99.90;;;;;;5114113;28;19932;-86
2023/12/03 07:43:08;;;;;;;;;;;1.60;99.90;;;;;;5088982;28;19924;-82
2023/12/03 07:45:34;;;;;;;;;;;1.60;99.90;;;;;;5094589;27;19924;-82
2023/12/03 07:47:59;;;;;;;;;;;1.60;99.90;;;;;;5102626;28;19923;-82
2023/12/03 07:50:25;;;;;;;;;;;1.70;99.90;;;;;;5103208;28;19928;-82
2023/12/03 07:52:50;;;;;;;;;;;1.60;99.90;;;;;;5112271;27;20019;-82
2023/12/03 07:55:16;;;;;;;;;;;1.70;99.90;;;;;;5107427;27;19934;-82
2023/12/03 07:57:41;;;;;;;;;;;1.70;99.90;;;;;;5118197;27;19938;-82
2023/12/03 08:00:07;;;;;;;;;;;1.70;99.90;;;;;;5111601;27;20374;-82
2023/12/03 08:02:33;;;;;;;;;;;1.70;99.90;;;;;;5110908;27;19985;-82
2023/12/03 08:04:58;;;;;;;;;;;1.70;99.90;;;;;;5113338;27;20295;-84
2023/12/03 08:07:24;;;;;;;;;;;1.70;99.90;;;;;;5117132;27;19927;-83
2023/12/03 08:09:51;;;;;;;;;;;1.70;99.90;;;;;;5113126;27;20578;-83
2023/12/03 08:12:17;;;;;;;;;;;1.70;99.90;;;;;;5107492;27;19928;-82
2023/12/03 08:14:42;;;;;;;;;;;1.80;99.90;;;;;;5109390;27;19924;-81
2023/12/03 08:17:12;;;;;;;;;;;1.80;99.90;;;;;;5114755;28;19924;-82
2023/12/03 08:19:38;;;;;;;;;;;1.80;99.90;;;;;;5114313;27;20010;-82
2023/12/03 08:22:05;;;;;;;;;;;1.80;99.90;;;;;;5113416;27;19931;-82
2023/12/03 08:24:30;;;;;;;;;;;1.80;99.90;;;;;;5109445;27;19924;-82
2023/12/03 08:26:56;;;;;;;;;;;1.90;99.90;;;;;;5118941;27;19923;-83
2023/12/03 08:29:22;;;;;;;;;;;1.90;99.90;;;;;;5117325;27;19988;-82
2023/12/03 08:31:49;;;;;;;;;;;1.90;99.90;;;;;;5110616;27;20349;-82
2023/12/03 08:34:16;;;;;;;;;;;1.90;99.90;;;;;;5107563;27;19932;-83
2023/12/03 08:36:41;;;;;;;;;;;1.90;99.90;;;;;;5114327;27;19930;-82
2023/12/03 08:39:08;;;;;;;;;;;1.90;99.90;;;;;;5112981;27;19928;-84
2023/12/03 08:41:36;;;;;;;;;;;1.90;99.90;;;;;;5106741;28;19947;-82
2023/12/03 08:44:02;;;;;;;;;;;1.90;99.90;;;;;;5107358;27;20271;-88
2023/12/03 08:46:28;;;;;;;;;;;1.90;99.90;;;;;;5090095;28;19924;-82
2023/12/03 08:48:54;;;;;;;;;;;1.90;99.90;;;;;;5114510;27;20358;-82
2023/12/03 08:51:19;;;;;;;;;;;1.80;99.90;;;;;;5107507;27;19931;-83
2023/12/03 08:53:45;;;;;;;;;;;1.80;99.90;;;;;;5110301;27;19945;-83
2023/12/03 08:56:12;;;;;;;;;;;1.80;99.90;;;;;;5110340;28;19924;-83
2023/12/03 08:58:38;;;;;;;;;;;1.70;99.90;;;;;;5111165;28;20393;-82
2023/12/03 09:01:04;;;;;;;;;;;1.70;99.90;;;;;;5112008;27;19928;-82
2023/12/03 09:03:29;;;;;;;;;;;1.70;99.90;;;;;;5118695;27;20391;-82
2023/12/03 09:05:55;;;;;;;;;;;1.70;99.90;;;;;;5115366;27;19931;-84
2023/12/03 09:08:20;;;;;;;;;;;1.70;99.90;;;;;;5106417;27;20318;-83
2023/12/03 09:10:46;;;;;;;;;;;1.70;99.90;;;;;;5110114;27;19968;-82
2023/12/03 09:13:12;;;;;;;;;;;1.60;99.90;;;;;;5101856;27;19939;-86
2023/12/03 09:15:37;;;;;;;;;;;1.60;99.90;;;;;;5112725;27;19930;-83
2023/12/03 09:18:03;;;;;;;;;;;1.60;99.90;;;;;;5109962;27;19930;-83
2023/12/03 09:20:28;;;;;;;;;;;1.70;99.90;;;;;;5107470;27;19981;-83
2023/12/03 09:22:54;;;;;;;;;;;1.80;99.90;;;;;;5110922;27;20022;-85
2023/12/03 09:25:19;;;;;;;;;;;1.90;99.90;;;;;;5112170;27;19923;-82
2023/12/03 09:27:45;;;;;;;;;;;2.00;99.90;;;;;;5109820;27;19942;-84
2023/12/03 09:30:11;;;;;;;;;;;1.90;99.90;;;;;;5107825;28;21257;-84
2023/12/03 09:32:36;;;;;;;;;;;2.00;99.90;;;;;;5092421;28;19977;-82
2023/12/03 09:35:02;;;;;;;;;;;2.00;99.90;;;;;;5099759;28;19931;-84
2023/12/03 09:37:28;;;;;;;;;;;2.10;99.90;;;;;;5096096;28;20365;-82
2023/12/03 09:39:53;;;;;;;;;;;2.10;99.90;;;;;;5109055;28;19924;-84
2023/12/03 09:42:24;;;;;;;;;;;2.10;99.90;;;;;;5125484;27;19928;-85
2023/12/03 09:44:53;;;;;;;;;;;2.00;99.90;;;;;;5107650;27;19927;-85
2023/12/03 09:47:21;;;;;;;;;;;2.00;99.90;;;;;;5131356;27;20057;-85
2023/12/03 09:49:47;;;;;;;;;;;2.10;99.90;;;;;;5112728;27;19954;-83
2023/12/03 09:52:14;;;;;;;;;;;2.00;99.90;;;;;;5110064;27;19932;-85
2023/12/03 09:54:40;;;;;;;;;;;2.00;99.90;;;;;;5109424;27;19948;-86
2023/12/03 09:57:07;;;;;;;;;;;2.00;99.90;;;;;;5128281;27;19943;-84
2023/12/03 09:59:34;;;;;;;;;;;2.10;99.90;;;;;;5110476;27;19935;-82
2023/12/03 10:02:00;;;;;;;;;;;2.10;99.90;;;;;;5108419;27;20306;-83
2023/12/03 10:04:25;;;;;;;;;;;2.10;99.90;;;;;;5110673;28;19928;-87
2023/12/03 10:06:52;;;;;;;;;;;2.10;99.90;;;;;;5114040;28;19931;-84
2023/12/03 10:09:19;;;;;;;;;;;2.00;99.90;;;;;;5110024;28;20395;-82
2023/12/03 10:11:50;;;;;;;;;;;2.00;99.90;;;;;;5107964;28;19927;-82
2023/12/03 10:14:16;;;;;;;;;;;2.00;99.90;;;;;;5109098;28;19928;-83
2023/12/03 10:16:48;;;;;;;;;;;2.00;99.90;;;;;;5109988;27;19927;-81
2023/12/03 10:19:23;;;;;;;;;;;2.00;99.90;;;;;;5112231;28;19924;-83
2023/12/03 10:21:50;;;;;;;;;;;2.00;99.90;;;;;;5134626;27;19924;-83
2023/12/03 10:24:15;;;;;;;;;;;2.10;99.90;;;;;;5111272;28;20023;-83
2023/12/03 10:26:51;;;;;;;;;;;2.10;99.90;;;;;;5098582;28;19985;-82
2023/12/03 10:29:20;;;;;;;;;;;2.10;99.90;;;;;;5099323;28;19928;-82
2023/12/03 10:31:50;;;;;;;;;;;2.10;99.90;;;;;;5107668;28;20378;-83
2023/12/03 10:34:19;;;;;;;;;;;2.20;99.90;;;;;;5112268;28;19934;-83
2023/12/03 10:36:46;;;;;;;;;;;2.20;99.90;;;;;;5112171;28;19928;-81
2023/12/03 10:39:17;;;;;;;;;;;2.20;99.90;;;;;;5111943;28;19928;-83
2023/12/03 10:41:46;;;;;;;;;;;2.20;99.90;;;;;;5111477;28;19981;-83
2023/12/03 10:44:19;;;;;;;;;;;2.20;99.90;;;;;;5095716;28;19985;-80
2023/12/03 10:46:44;;;;;;;;;;;2.20;99.90;;;;;;5112979;28;19927;-82
2023/12/03 10:49:11;;;;;;;;;;;2.20;99.90;;;;;;5096405;28;19969;-81
2023/12/03 10:51:39;;;;;;;;;;;2.20;99.90;;;;;;5121747;27;19927;-81
2023/12/03 10:54:04;;;;;;;;;;;2.20;99.90;;;;;;5109684;28;19923;-81
2023/12/03 10:56:30;;;;;;;;;;;2.10;99.90;;;;;;5104125;28;20012;-81
2023/12/03 10:58:57;;;;;;;;;;;2.10;99.90;;;;;;5098115;28;19924;-81
2023/12/03 11:01:23;;;;;;;;;;;2.20;99.90;;;;;;5103219;28;19924;-82
2023/12/03 11:03:51;;;;;;;;;;;2.10;99.90;;;;;;5113623;28;19930;-82
2023/12/03 11:06:17;;;;;;;;;;;2.10;99.90;;;;;;5101176;28;19924;-82
2023/12/03 11:08:45;;;;;;;;;;;2.10;99.90;;;;;;5100058;28;20301;-84
2023/12/03 11:11:12;;;;;;;;;;;2.10;99.90;;;;;;5119978;27;19924;-82
2023/12/03 11:13:37;;;;;;;;;;;2.10;99.90;;;;;;5105280;28;19931;-83
2023/12/03 11:16:04;;;;;;;;;;;2.10;99.90;;;;;;5115215;28;19954;-83
2023/12/03 11:18:31;;;;;;;;;;;2.10;99.90;;;;;;5101046;27;19924;-82
2023/12/03 11:21:03;;;;;;;;;;;2.10;99.90;;;;;;5148794;27;20027;-83
2023/12/03 11:23:51;;;;;;;;;;;2.20;99.90;;;;;;5114145;28;20378;-83
2023/12/03 11:26:18;;;;;;;;;;;2.20;99.90;;;;;;5105314;28;19931;-83
2023/12/03 11:28:54;;;;;;;;;;;2.20;99.90;;;;;;5113062;28;19923;-84
2023/12/03 11:31:19;;;;;;;;;;;2.20;99.90;;;;;;5105411;28;20081;-83
2023/12/03 11:33:54;;;;;;;;;;;2.30;99.90;;;;;;5135732;27;20402;-82
2023/12/03 11:36:20;;;;;;;;;;;2.20;99.90;;;;;;5113291;27;19928;-83
2023/12/03 11:38:47;;;;;;;;;;;2.20;99.90;;;;;;5103856;27;20572;-82
2023/12/03 11:41:12;;;;;;;;;;;2.20;99.90;;;;;;5104270;28;19931;-82
2023/12/03 11:43:38;;;;;;;;;;;2.10;99.90;;;;;;5100380;27;19939;-81
2023/12/03 11:46:04;;;;;;;;;;;2.00;99.90;;;;;;5104706;27;19931;-82
2023/12/03 11:48:30;;;;;;;;;;;1.90;99.90;;;;;;5099063;27;19928;-84
2023/12/03 11:50:59;;;;;;;;;;;1.90;99.90;;;;;;5099012;27;20421;-83
2023/12/03 11:53:48;;;;;;;;;;;2.00;99.90;;;;;;5106580;27;19923;-83
2023/12/03 11:56:16;;;;;;;;;;;2.00;99.90;;;;;;5103794;28;19931;-81
2023/12/03 11:58:42;;;;;;;;;;;2.10;99.90;;;;;;5112797;27;19928;-84
2023/12/03 12:01:07;;;;;;;;;;;2.20;99.90;;;;;;5103930;27;19924;-82
2023/12/03 12:03:34;;;;;;;;;;;2.40;99.90;;;;;;5106400;28;19924;-81
2023/12/03 12:06:00;;;;;;;;;;;2.50;99.90;;;;;;5106654;28;19986;-82
2023/12/03 12:08:25;;;;;;;;;;;2.70;99.90;;;;;;5098160;28;19934;-85
2023/12/03 12:10:51;;;;;;;;;;;2.90;99.90;;;;;;5103364;27;19924;-82
2023/12/03 12:13:18;;;;;;;;;;;3.00;99.90;;;;;;5144338;27;20007;-82
2023/12/03 12:15:44;;;;;;;;;;;3.10;99.90;;;;;;5106389;27;20299;-83
2023/12/03 12:18:10;;;;;;;;;;;3.20;99.90;;;;;;5108678;28;19930;-83
2023/12/03 12:20:36;;;;;;;;;;;3.20;99.90;;;;;;5099632;27;19931;-80
2023/12/03 12:23:01;;;;;;;;;;;3.30;99.90;;;;;;5098662;28;20007;-82
2023/12/03 12:25:27;;;;;;;;;;;3.30;99.90;;;;;;5116368;27;19927;-84
2023/12/03 12:27:53;;;;;;;;;;;3.30;99.90;;;;;;5119200;27;19935;-83
2023/12/03 12:30:23;;;;;;;;;;;3.30;99.90;;;;;;5098885;27;20276;-83
2023/12/03 12:32:51;;;;;;;;;;;3.30;99.90;;;;;;5104294;28;19974;-83
2023/12/03 12:35:21;;;;;;;;;;;3.30;99.90;;;;;;5105575;28;19992;-82
2023/12/03 12:37:46;;;;;;;;;;;3.30;99.90;;;;;;5096836;28;19928;-81
2023/12/03 12:40:13;;;;;;;;;;;3.20;99.90;;;;;;5108622;28;20283;-81
2023/12/03 12:42:42;;;;;;;;;;;3.20;99.90;;;;;;5094116;28;19924;-81
2023/12/03 12:45:29;;;;;;;;;;;3.20;99.90;;;;;;5094505;28;19928;-82
2023/12/03 12:47:54;;;;;;;;;;;3.10;99.90;;;;;;5115935;27;19934;-83
2023/12/03 12:50:33;;;;;;;;;;;3.10;99.90;;;;;;5102106;28;19924;-87
2023/12/03 12:52:58;;;;;;;;;;;3.00;99.90;;;;;;5076316;28;20460;-82
2023/12/03 12:55:28;;;;;;;;;;;2.90;99.90;;;;;;5094820;28;19970;-81
2023/12/03 12:57:54;;;;;;;;;;;2.80;99.90;;;;;;5120244;27;19923;-81
2023/12/03 13:00:19;;;;;;;;;;;2.80;99.90;;;;;;5118565;27;20371;-82
2023/12/03 13:02:45;;;;;;;;;;;2.70;99.90;;;;;;5116995;27;19950;-81
2023/12/03 13:05:11;;;;;;;;;;;2.70;99.90;;;;;;5100761;27;19928;-81
2023/12/03 13:07:36;;;;;;;;;;;2.60;99.90;;;;;;5102573;28;20278;-81
2023/12/03 13:10:05;;;;;;;;;;;2.50;99.90;;;;;;5092653;28;20007;-81
2023/12/03 13:12:31;;;;;;;;;;;2.40;99.90;;;;;;5096186;28;19985;-82
2023/12/03 13:14:56;;;;;;;;;;;2.30;99.90;;;;;;5108470;28;20011;-80
2023/12/03 13:17:22;;;;;;;;;;;2.30;99.90;;;;;;5113705;28;20297;-80
2023/12/03 13:19:48;;;;;;;;;;;2.20;99.90;;;;;;5113785;28;19927;-85
2023/12/03 13:22:14;;;;;;;;;;;2.20;99.90;;;;;;5112321;28;20015;-81
2023/12/03 13:24:39;;;;;;;;;;;2.30;99.90;;;;;;5113799;28;19924;-80
2023/12/03 13:27:06;;;;;;;;;;;2.20;99.90;;;;;;5113212;28;20009;-81
2023/12/03 13:29:31;;;;;;;;;;;2.20;99.90;;;;;;5113693;28;19923;-81
2023/12/03 13:31:57;;;;;;;;;;;2.20;99.90;;;;;;5095407;28;19947;-81
2023/12/03 13:34:23;;;;;;;;;;;2.20;99.90;;;;;;5113029;28;19947;-81
2023/12/03 13:36:49;;;;;;;;;;;2.20;99.90;;;;;;5113101;28;19931;-80
2023/12/03 13:39:15;;;;;;;;;;;2.20;99.90;;;;;;5111838;28;19925;-81
2023/12/03 13:41:41;;;;;;;;;;;2.30;99.90;;;;;;5113059;28;19931;-83
2023/12/03 13:44:07;;;;;;;;;;;2.30;99.90;;;;;;5098933;28;20022;-81
2023/12/03 13:46:32;;;;;;;;;;;2.30;99.90;;;;;;5113434;28;20003;-81
2023/12/03 13:48:59;;;;;;;;;;;2.30;99.90;;;;;;5111784;28;19970;-81
2023/12/03 13:51:25;;;;;;;;;;;2.30;99.90;;;;;;5113404;28;19931;-81
2023/12/03 13:53:51;;;;;;;;;;;2.30;99.90;;;;;;5111986;28;20290;-81
2023/12/03 13:56:17;;;;;;;;;;;2.30;99.90;;;;;;5113076;28;19923;-81
2023/12/03 13:58:42;;;;;;;;;;;2.30;99.90;;;;;;5112126;28;20324;-81
2023/12/03 14:01:08;;;;;;;;;;;2.30;99.90;;;;;;5112918;28;19924;-81
2023/12/03 14:03:33;;;;;;;;;;;2.20;99.90;;;;;;5112586;28;20390;-82
2023/12/03 14:05:59;;;;;;;;;;;2.20;99.90;;;;;;5111568;28;20012;-80
2023/12/03 14:08:24;;;;;;;;;;;2.30;99.90;;;;;;5113162;28;20302;-81
2023/12/03 14:10:50;;;;;;;;;;;2.20;99.90;;;;;;5112204;28;19930;-83
2023/12/03 14:13:15;;;;;;;;;;;2.30;99.90;;;;;;5113426;28;19927;-81
2023/12/03 14:15:41;;;;;;;;;;;2.20;99.90;;;;;;5112909;28;19924;-81
2023/12/03 14:18:07;;;;;;;;;;;2.30;99.90;;;;;;5113560;28;19966;-81
2023/12/03 14:20:32;;;;;;;;;;;2.20;99.90;;;;;;5116420;28;20285;-81
2023/12/03 14:22:58;;;;;;;;;;;2.30;99.90;;;;;;5118960;28;19924;-81